Time;durP1;ratioP1;P1;durP2;ratioP2;P2;SDS_P1;SDS_P2;PMS_P1;PMS_P2;Temp;Humidity;BMP_temperature;BMP_pressure;BME280_temperature;BME280_humidity;BME280_pressure;Samples;Min_cycle;Max_cycle;Signal;HPM_P1;HPM_P2
2023/05/12 00:00:36;;;;;;;;;0.00;0.00;;;;;;;;5056767;28;45582;-77
2023/05/12 00:03:02;;;;;;;;;0.00;0.00;;;;;;;;5056484;28;45327;-77
2023/05/12 00:05:28;;;;;;;;;0.50;0.00;;;;;;;;5056785;28;45360;-77
2023/05/12 00:07:53;;;;;;;;;0.00;0.00;;;;;;;;5055528;28;47388;-77
2023/05/12 00:10:18;;;;;;;;;1.00;1.00;;;;;;;;5056741;28;45309;-77
2023/05/12 00:12:44;;;;;;;;;0.00;0.00;;;;;;;;5056654;28;45349;-77
2023/05/12 00:15:09;;;;;;;;;0.75;0.00;;;;;;;;5056461;28;45611;-77
2023/05/12 00:17:34;;;;;;;;;0.25;0.00;;;;;;;;5056288;28;45409;-77
2023/05/12 00:20:00;;;;;;;;;0.67;0.00;;;;;;;;5056500;28;45493;-77
2023/05/12 00:22:25;;;;;;;;;0.00;0.00;;;;;;;;5056462;28;45411;-76
2023/05/12 00:24:50;;;;;;;;;1.75;1.00;;;;;;;;5056396;28;45361;-77
2023/05/12 00:27:16;;;;;;;;;0.00;0.00;;;;;;;;5056137;28;47071;-77
2023/05/12 00:29:41;;;;;;;;;0.00;0.00;;;;;;;;5056460;28;45467;-77
2023/05/12 00:32:07;;;;;;;;;0.00;0.00;;;;;;;;5056169;28;45430;-77
2023/05/12 00:34:32;;;;;;;;;0.00;0.00;;;;;;;;5038325;28;45382;-77
2023/05/12 00:36:57;;;;;;;;;0.67;0.67;;;;;;;;5056166;28;46443;-76
2023/05/12 00:39:22;;;;;;;;;0.00;0.00;;;;;;;;5056250;28;45312;-77
2023/05/12 00:41:52;;;;;;;;;0.00;0.00;;;;;;;;5038181;28;45222;-77
2023/05/12 00:44:17;;;;;;;;;1.00;0.00;;;;;;;;5056153;28;45423;-76
2023/05/12 00:46:43;;;;;;;;;2.33;1.00;;;;;;;;5055528;28;45510;-77
2023/05/12 00:49:08;;;;;;;;;0.00;0.00;;;;;;;;5038033;28;45456;-77
2023/05/12 00:51:33;;;;;;;;;1.00;0.00;;;;;;;;5056234;28;45348;-77
2023/05/12 00:53:58;;;;;;;;;1.00;0.00;;;;;;;;5055956;28;45622;-77
2023/05/12 00:56:24;;;;;;;;;2.00;0.00;;;;;;;;5055965;28;46549;-77
2023/05/12 00:58:49;;;;;;;;;2.00;0.75;;;;;;;;5055976;28;45504;-77
2023/05/12 01:01:14;;;;;;;;;1.00;0.00;;;;;;;;5055630;28;45509;-77
2023/05/12 01:03:40;;;;;;;;;0.50;0.00;;;;;;;;5056027;28;45349;-77
2023/05/12 01:06:11;;;;;;;;;1.00;1.00;;;;;;;;5055739;28;46050;-76
2023/05/12 01:08:37;;;;;;;;;0.00;0.00;;;;;;;;5055892;28;45451;-77
2023/05/12 01:11:02;;;;;;;;;2.25;0.00;;;;;;;;5055554;28;45349;-76
2023/05/12 01:13:28;;;;;;;;;2.00;0.00;;;;;;;;5055487;28;45356;-77
2023/05/12 01:15:54;;;;;;;;;0.00;0.00;;;;;;;;5055263;28;46340;-76
2023/05/12 01:18:20;;;;;;;;;1.50;0.00;;;;;;;;5057075;28;45270;-77
2023/05/12 01:20:46;;;;;;;;;0.00;0.00;;;;;;;;5059487;28;45324;-77
2023/05/12 01:23:12;;;;;;;;;0.00;0.00;;;;;;;;5059240;28;45383;-77
2023/05/12 01:25:38;;;;;;;;;0.00;0.00;;;;;;;;5059037;28;46183;-77
2023/05/12 01:28:04;;;;;;;;;2.00;1.00;;;;;;;;5059135;28;45274;-77
2023/05/12 01:30:30;;;;;;;;;2.00;0.00;;;;;;;;5058843;28;45295;-77
2023/05/12 01:32:55;;;;;;;;;2.00;0.00;;;;;;;;5059334;28;45302;-77
2023/05/12 01:35:21;;;;;;;;;2.00;1.00;;;;;;;;5059272;28;45544;-77
2023/05/12 01:37:46;;;;;;;;;0.00;0.00;;;;;;;;5058966;28;45376;-77
2023/05/12 01:40:11;;;;;;;;;0.00;0.00;;;;;;;;5059119;28;45292;-77
2023/05/12 01:42:37;;;;;;;;;0.00;0.00;;;;;;;;5058987;28;45432;-77
2023/05/12 01:45:03;;;;;;;;;2.00;0.00;;;;;;;;5058368;28;45442;-76
2023/05/12 01:47:28;;;;;;;;;0.00;0.00;;;;;;;;5058780;28;45319;-77
2023/05/12 01:49:53;;;;;;;;;1.00;0.00;;;;;;;;5059115;28;45368;-77
2023/05/12 01:52:19;;;;;;;;;0.33;0.33;;;;;;;;5058797;28;45249;-77
2023/05/12 01:54:44;;;;;;;;;0.00;0.00;;;;;;;;5058776;28;45348;-77
2023/05/12 01:57:10;;;;;;;;;0.25;0.25;;;;;;;;5058636;28;45402;-77
2023/05/12 01:59:35;;;;;;;;;1.00;1.00;;;;;;;;5058640;28;45405;-77
2023/05/12 02:02:01;;;;;;;;;1.00;0.00;;;;;;;;5058605;28;45515;-77
2023/05/12 02:04:26;;;;;;;;;0.00;0.00;;;;;;;;5040507;28;48192;-77
2023/05/12 02:06:51;;;;;;;;;0.50;0.50;;;;;;;;5058619;28;45310;-77
2023/05/12 02:09:16;;;;;;;;;1.00;1.00;;;;;;;;5058711;28;45325;-77
2023/05/12 02:11:42;;;;;;;;;1.33;1.00;;;;;;;;5058447;28;45305;-77
2023/05/12 02:14:07;;;;;;;;;0.00;0.00;;;;;;;;5057954;28;46315;-77
2023/05/12 02:16:32;;;;;;;;;1.00;1.00;;;;;;;;5058205;28;45376;-76
2023/05/12 02:18:57;;;;;;;;;0.00;0.00;;;;;;;;5058508;28;45345;-77
2023/05/12 02:21:22;;;;;;;;;1.67;0.33;;;;;;;;5058424;28;45477;-77
2023/05/12 02:23:48;;;;;;;;;1.00;0.00;;;;;;;;5058293;28;45362;-77
2023/05/12 02:26:13;;;;;;;;;2.67;1.00;;;;;;;;5058130;28;45536;-77
2023/05/12 02:28:38;;;;;;;;;1.00;0.00;;;;;;;;5057928;28;45520;-77
2023/05/12 02:31:03;;;;;;;;;0.00;0.00;;;;;;;;5057408;28;45345;-76
2023/05/12 02:33:29;;;;;;;;;1.00;0.00;;;;;;;;5058110;28;46593;-77
2023/05/12 02:35:54;;;;;;;;;0.00;0.00;;;;;;;;5058152;28;45344;-76
2023/05/12 02:38:19;;;;;;;;;0.00;0.00;;;;;;;;5058312;28;45363;-77
2023/05/12 02:40:45;;;;;;;;;0.00;0.00;;;;;;;;5058291;28;45255;-77
2023/05/12 02:43:10;;;;;;;;;2.25;0.75;;;;;;;;5057458;28;45357;-77
2023/05/12 02:45:35;;;;;;;;;0.00;0.00;;;;;;;;5057916;28;45401;-77
2023/05/12 02:48:00;;;;;;;;;0.50;0.00;;;;;;;;5058090;28;45444;-77
2023/05/12 02:50:26;;;;;;;;;0.00;0.00;;;;;;;;5057960;28;45312;-77
2023/05/12 02:52:51;;;;;;;;;0.00;0.00;;;;;;;;5057814;28;46088;-77
2023/05/12 02:55:16;;;;;;;;;0.00;0.00;;;;;;;;5057837;28;45576;-76
2023/05/12 02:57:42;;;;;;;;;0.00;0.00;;;;;;;;5057714;28;45387;-76
2023/05/12 03:00:07;;;;;;;;;1.00;0.00;;;;;;;;5057818;28;45559;-77
2023/05/12 03:02:33;;;;;;;;;2.75;0.00;;;;;;;;5057451;28;47742;-77
2023/05/12 03:04:58;;;;;;;;;0.00;0.00;;;;;;;;5057767;28;45456;-77
2023/05/12 03:07:24;;;;;;;;;0.00;0.00;;;;;;;;5057598;28;45522;-77
2023/05/12 03:09:49;;;;;;;;;1.00;1.00;;;;;;;;5039636;28;45331;-77
2023/05/12 03:12:14;;;;;;;;;2.00;0.00;;;;;;;;5057025;28;45460;-76
2023/05/12 03:14:40;;;;;;;;;0.00;0.00;;;;;;;;5057375;28;45415;-76
2023/05/12 03:17:05;;;;;;;;;0.00;0.00;;;;;;;;5057756;28;45320;-76
2023/05/12 03:19:30;;;;;;;;;0.25;0.25;;;;;;;;5057620;28;45418;-77
2023/05/12 03:21:55;;;;;;;;;1.00;0.00;;;;;;;;5057307;28;45249;-76
2023/05/12 03:24:20;;;;;;;;;1.00;1.00;;;;;;;;5057378;28;45396;-78
2023/05/12 03:26:46;;;;;;;;;2.33;0.00;;;;;;;;5057047;28;45818;-77
2023/05/12 03:29:12;;;;;;;;;0.00;0.00;;;;;;;;5057330;28;45320;-75
2023/05/12 03:31:37;;;;;;;;;0.00;0.00;;;;;;;;5057205;28;47090;-76
2023/05/12 03:34:02;;;;;;;;;0.00;0.00;;;;;;;;5057194;28;45545;-76
2023/05/12 03:36:27;;;;;;;;;0.00;0.00;;;;;;;;5057320;28;45458;-77
2023/05/12 03:38:52;;;;;;;;;0.00;0.00;;;;;;;;5057327;28;45301;-77
2023/05/12 03:41:18;;;;;;;;;1.00;0.00;;;;;;;;5056550;28;46066;-76
2023/05/12 03:43:43;;;;;;;;;0.00;0.00;;;;;;;;5056942;28;45363;-76
2023/05/12 03:46:08;;;;;;;;;0.33;0.00;;;;;;;;5056834;28;45262;-76
2023/05/12 03:48:33;;;;;;;;;0.67;0.00;;;;;;;;5057209;28;45362;-76
2023/05/12 03:50:58;;;;;;;;;0.00;0.00;;;;;;;;5056846;28;45405;-76
2023/05/12 03:53:24;;;;;;;;;0.33;0.33;;;;;;;;5056839;28;45261;-76
2023/05/12 03:55:49;;;;;;;;;2.33;0.00;;;;;;;;5056596;28;45286;-77
2023/05/12 03:58:14;;;;;;;;;0.00;0.00;;;;;;;;5056992;28;45397;-78
2023/05/12 04:00:39;;;;;;;;;2.00;0.33;;;;;;;;5056625;28;47011;-77
2023/05/12 04:03:04;;;;;;;;;2.00;0.00;;;;;;;;5056544;28;45281;-76
2023/05/12 04:05:30;;;;;;;;;1.00;0.00;;;;;;;;5056990;28;45384;-77
2023/05/12 04:07:55;;;;;;;;;1.00;0.00;;;;;;;;5056636;28;45427;-76
2023/05/12 04:10:21;;;;;;;;;0.00;0.00;;;;;;;;5056060;28;46316;-77
2023/05/12 04:12:46;;;;;;;;;1.00;1.00;;;;;;;;5056444;28;45502;-77
2023/05/12 04:15:13;;;;;;;;;0.00;0.00;;;;;;;;5038357;28;45309;-75
2023/05/12 04:17:38;;;;;;;;;1.00;0.00;;;;;;;;5056629;28;45329;-76
2023/05/12 04:20:04;;;;;;;;;0.00;0.00;;;;;;;;5056405;28;46460;-76
2023/05/12 04:22:29;;;;;;;;;3.25;0.00;;;;;;;;5056386;28;45289;-76
2023/05/12 04:24:54;;;;;;;;;3.00;0.00;;;;;;;;5056336;28;45325;-76
2023/05/12 04:27:19;;;;;;;;;0.00;0.00;;;;;;;;5056461;28;45342;-77
2023/05/12 04:29:44;;;;;;;;;2.00;1.00;;;;;;;;5056195;28;46297;-77
2023/05/12 04:32:10;;;;;;;;;0.00;0.00;;;;;;;;5056282;28;45452;-77
2023/05/12 04:34:35;;;;;;;;;1.00;1.00;;;;;;;;5056336;28;45377;-77
2023/05/12 04:37:00;;;;;;;;;0.00;0.00;;;;;;;;5056273;28;45451;-77
2023/05/12 04:39:26;;;;;;;;;2.00;1.00;;;;;;;;5055625;28;46460;-77
2023/05/12 04:41:51;;;;;;;;;2.00;0.25;;;;;;;;5056006;28;45352;-77
2023/05/12 04:44:16;;;;;;;;;0.00;0.00;;;;;;;;5056226;28;45392;-77
2023/05/12 04:46:42;;;;;;;;;2.00;0.00;;;;;;;;5056149;28;45483;-77
2023/05/12 04:49:07;;;;;;;;;3.00;1.00;;;;;;;;5055898;28;46577;-77
2023/05/12 04:51:33;;;;;;;;;0.33;0.00;;;;;;;;5038013;28;45401;-77
2023/05/12 04:53:58;;;;;;;;;1.00;1.00;;;;;;;;5055126;28;45293;-77
2023/05/12 04:56:23;;;;;;;;;3.00;1.00;;;;;;;;5056269;28;45459;-77
2023/05/12 04:58:48;;;;;;;;;0.00;0.00;;;;;;;;5055962;28;46258;-77
2023/05/12 05:01:13;;;;;;;;;0.00;0.00;;;;;;;;5055953;28;45483;-77
2023/05/12 05:03:39;;;;;;;;;0.00;0.00;;;;;;;;5056139;28;45273;-77
2023/05/12 05:06:04;;;;;;;;;2.25;0.00;;;;;;;;5037739;28;45604;-77
2023/05/12 05:08:29;;;;;;;;;0.00;0.00;;;;;;;;5055329;28;45159;-77
2023/05/12 05:10:54;;;;;;;;;2.00;0.00;;;;;;;;5056091;28;45352;-77
2023/05/12 05:13:20;;;;;;;;;2.00;0.00;;;;;;;;5055893;28;45338;-77
2023/05/12 05:15:48;;;;;;;;;0.00;0.00;;;;;;;;5055860;28;45290;-77
2023/05/12 05:18:14;;;;;;;;;2.50;1.00;;;;;;;;5055449;28;46824;-77
2023/05/12 05:20:39;;;;;;;;;2.33;1.00;;;;;;;;5055922;28;45497;-77
2023/05/12 05:23:04;;;;;;;;;0.00;0.00;;;;;;;;5055658;28;45332;-77
2023/05/12 05:25:30;;;;;;;;;0.00;0.00;;;;;;;;5056102;28;45610;-77
2023/05/12 05:27:55;;;;;;;;;0.00;0.00;;;;;;;;5037735;28;47206;-77
2023/05/12 05:30:20;;;;;;;;;0.00;0.00;;;;;;;;5038532;28;45500;-78
2023/05/12 05:32:45;;;;;;;;;3.00;1.00;;;;;;;;5055770;28;45377;-78
2023/05/12 05:35:11;;;;;;;;;0.33;0.33;;;;;;;;5055951;28;45344;-77
2023/05/12 05:37:36;;;;;;;;;1.00;0.00;;;;;;;;5055266;28;45451;-78
2023/05/12 05:40:01;;;;;;;;;1.33;0.67;;;;;;;;5055470;28;45368;-78
2023/05/12 05:42:26;;;;;;;;;0.67;0.67;;;;;;;;5055671;28;45262;-79
2023/05/12 05:44:51;;;;;;;;;0.00;0.00;;;;;;;;5055531;28;45434;-78
2023/05/12 05:47:16;;;;;;;;;0.00;0.00;;;;;;;;5055387;28;46524;-79
2023/05/12 05:49:42;;;;;;;;;0.00;0.00;;;;;;;;5055481;28;45380;-78
2023/05/12 05:52:07;;;;;;;;;0.00;0.00;;;;;;;;5054918;28;45219;-78
2023/05/12 05:54:32;;;;;;;;;0.67;0.67;;;;;;;;5055471;28;45355;-78
2023/05/12 05:57:00;;;;;;;;;1.00;1.00;;;;;;;;5054941;28;48050;-78
2023/05/12 05:59:26;;;;;;;;;1.25;1.00;;;;;;;;5053531;28;45544;-78
2023/05/12 06:01:51;;;;;;;;;1.00;0.00;;;;;;;;5054885;28;45622;-78
2023/05/12 06:04:16;;;;;;;;;0.00;0.00;;;;;;;;5054806;28;45308;-78
2023/05/12 06:06:41;;;;;;;;;0.00;0.00;;;;;;;;5039488;28;47781;-79
2023/05/12 06:09:08;;;;;;;;;5.00;1.00;;;;;;;;5058444;28;45297;-78
2023/05/12 06:11:33;;;;;;;;;0.25;0.00;;;;;;;;5058154;28;45504;-78
2023/05/12 06:13:58;;;;;;;;;0.00;0.00;;;;;;;;5040201;28;45646;-78
2023/05/12 06:16:23;;;;;;;;;1.67;0.00;;;;;;;;5058146;28;45427;-78
2023/05/12 06:18:49;;;;;;;;;0.33;0.33;;;;;;;;5058422;28;45490;-78
2023/05/12 06:21:14;;;;;;;;;0.75;0.75;;;;;;;;5058029;28;45496;-78
2023/05/12 06:23:40;;;;;;;;;0.33;0.00;;;;;;;;5058630;28;45479;-79
2023/05/12 06:26:06;;;;;;;;;0.00;0.00;;;;;;;;5058097;28;47422;-78
2023/05/12 06:28:31;;;;;;;;;1.00;0.00;;;;;;;;5058073;28;45702;-78
2023/05/12 06:30:58;;;;;;;;;0.00;0.00;;;;;;;;5040213;28;45348;-78
2023/05/12 06:33:23;;;;;;;;;2.00;2.00;;;;;;;;5057737;28;45578;-77
2023/05/12 06:35:48;;;;;;;;;1.00;0.00;;;;;;;;5058052;28;45577;-78
2023/05/12 06:38:14;;;;;;;;;0.33;0.00;;;;;;;;5058184;28;45360;-78
2023/05/12 06:40:39;;;;;;;;;1.00;0.00;;;;;;;;5058075;28;45423;-78
2023/05/12 06:43:04;;;;;;;;;1.00;0.00;;;;;;;;5058126;28;45329;-78
2023/05/12 06:45:29;;;;;;;;;0.00;0.00;;;;;;;;5057622;28;46506;-78
2023/05/12 06:47:56;;;;;;;;;1.00;1.00;;;;;;;;5057589;28;45353;-78
2023/05/12 06:50:21;;;;;;;;;1.50;1.00;;;;;;;;5057857;28;45340;-79
2023/05/12 06:52:46;;;;;;;;;0.00;0.00;;;;;;;;5038535;28;45767;-77
2023/05/12 06:55:12;;;;;;;;;2.00;1.00;;;;;;;;5055712;28;45481;-76
2023/05/12 06:57:37;;;;;;;;;0.25;0.00;;;;;;;;5056629;28;45368;-77
2023/05/12 07:00:03;;;;;;;;;0.67;0.00;;;;;;;;5057740;28;45309;-78
2023/05/12 07:02:29;;;;;;;;;0.00;0.00;;;;;;;;5056476;28;46153;-78
2023/05/12 07:04:54;;;;;;;;;1.75;0.00;;;;;;;;5038773;28;47003;-78
2023/05/12 07:07:19;;;;;;;;;1.00;0.00;;;;;;;;5039501;28;45916;-78
2023/05/12 07:09:45;;;;;;;;;3.00;0.00;;;;;;;;5039058;28;45372;-78
2023/05/12 07:12:10;;;;;;;;;2.00;0.00;;;;;;;;5056419;28;45727;-77
2023/05/12 07:14:36;;;;;;;;;3.25;0.50;;;;;;;;5057034;28;46508;-78
2023/05/12 07:17:01;;;;;;;;;2.00;1.00;;;;;;;;5056304;28;45587;-78
2023/05/12 07:19:26;;;;;;;;;0.75;0.75;;;;;;;;5056816;28;45503;-77
2023/05/12 07:21:52;;;;;;;;;2.00;0.00;;;;;;;;5053433;28;45408;-77
2023/05/12 07:24:18;;;;;;;;;2.00;1.00;;;;;;;;5049742;28;46605;-77
2023/05/12 07:26:43;;;;;;;;;2.00;0.00;;;;;;;;5046899;28;45862;-76
2023/05/12 07:29:09;;;;;;;;;1.00;1.00;;;;;;;;5043674;28;45618;-77
2023/05/12 07:31:35;;;;;;;;;1.00;1.00;;;;;;;;5042389;28;45745;-77
2023/05/12 07:34:01;;;;;;;;;0.75;0.75;;;;;;;;5049426;28;47881;-78
2023/05/12 07:36:27;;;;;;;;;0.00;0.00;;;;;;;;5047836;28;45444;-77
2023/05/12 07:38:52;;;;;;;;;1.00;1.00;;;;;;;;5049083;28;46426;-77
2023/05/12 07:41:17;;;;;;;;;0.00;0.00;;;;;;;;5051809;28;45791;-77
2023/05/12 07:43:42;;;;;;;;;0.75;0.00;;;;;;;;5046574;28;45691;-77
2023/05/12 07:46:08;;;;;;;;;2.00;0.33;;;;;;;;5043439;28;45989;-77
2023/05/12 07:48:38;;;;;;;;;1.50;1.00;;;;;;;;5047969;28;45482;-77
2023/05/12 07:51:03;;;;;;;;;1.00;1.00;;;;;;;;5049177;28;45368;-77
2023/05/12 07:53:28;;;;;;;;;2.33;1.33;;;;;;;;5050529;28;46744;-75
2023/05/12 07:55:54;;;;;;;;;1.33;0.33;;;;;;;;5049972;28;45713;-77
2023/05/12 07:58:19;;;;;;;;;4.75;1.00;;;;;;;;4968773;28;47196;-77
2023/05/12 08:00:44;;;;;;;;;2.00;0.00;;;;;;;;5018888;28;45960;-76
2023/05/12 08:03:09;;;;;;;;;0.67;0.33;;;;;;;;5037790;28;45562;-77
2023/05/12 08:05:35;;;;;;;;;2.00;1.00;;;;;;;;5042438;28;45838;-76
2023/05/12 08:08:00;;;;;;;;;3.50;1.50;;;;;;;;5046195;28;45652;-77
2023/05/12 08:10:28;;;;;;;;;2.00;0.75;;;;;;;;5045609;28;45302;-77
2023/05/12 08:12:54;;;;;;;;;0.50;0.00;;;;;;;;5048550;28;47369;-76
2023/05/12 08:15:19;;;;;;;;;2.00;1.00;;;;;;;;5047832;28;45449;-77
2023/05/12 08:17:44;;;;;;;;;1.00;1.00;;;;;;;;5047163;28;45626;-77
2023/05/12 08:20:10;;;;;;;;;0.00;0.00;;;;;;;;5044689;28;45708;-77
2023/05/12 08:22:35;;;;;;;;;1.75;1.75;;;;;;;;5045493;28;46397;-76
2023/05/12 08:25:00;;;;;;;;;5.00;2.00;;;;;;;;5046878;28;45820;-75
2023/05/12 08:27:25;;;;;;;;;0.67;0.00;;;;;;;;5047028;28;45650;-77
2023/05/12 08:29:51;;;;;;;;;1.00;1.00;;;;;;;;5046987;28;45583;-77
2023/05/12 08:32:16;;;;;;;;;2.00;1.00;;;;;;;;5048385;28;47229;-77
2023/05/12 08:34:41;;;;;;;;;2.25;1.00;;;;;;;;5045107;28;45620;-75
2023/05/12 08:37:07;;;;;;;;;3.75;1.00;;;;;;;;5045991;28;45411;-77
2023/05/12 08:39:32;;;;;;;;;1.00;1.00;;;;;;;;5044027;28;45423;-77
2023/05/12 08:42:13;;;;;;;;;3.75;1.00;;;;;;;;5048527;28;47018;-76
2023/05/12 08:44:39;;;;;;;;;1.25;1.00;;;;;;;;5041440;28;45969;-77
2023/05/12 08:47:04;;;;;;;;;1.50;1.50;;;;;;;;5049055;28;45637;-77
2023/05/12 08:49:33;;;;;;;;;3.00;1.00;;;;;;;;5046435;28;45530;-76
2023/05/12 08:52:00;;;;;;;;;1.00;1.00;;;;;;;;5046874;28;46307;-77
2023/05/12 08:54:26;;;;;;;;;4.75;2.00;;;;;;;;5044636;28;45420;-76
2023/05/12 08:56:51;;;;;;;;;4.00;1.00;;;;;;;;5047219;28;45424;-77
2023/05/12 08:59:17;;;;;;;;;4.50;2.50;;;;;;;;5047075;28;45488;-77
2023/05/12 09:01:43;;;;;;;;;5.25;2.00;;;;;;;;5047194;28;45897;-76
2023/05/12 09:04:09;;;;;;;;;2.50;2.50;;;;;;;;5046917;28;45400;-77
2023/05/12 09:06:34;;;;;;;;;7.75;2.25;;;;;;;;5046992;28;45462;-76
2023/05/12 09:08:59;;;;;;;;;2.67;2.00;;;;;;;;5045120;28;45539;-76
2023/05/12 09:11:25;;;;;;;;;5.75;4.00;;;;;;;;5045396;28;46271;-76
2023/05/12 09:14:01;;;;;;;;;4.75;3.75;;;;;;;;5048107;28;45771;-76
2023/05/12 09:16:28;;;;;;;;;5.75;3.00;;;;;;;;5048560;28;45364;-76
2023/05/12 09:18:55;;;;;;;;;3.75;2.75;;;;;;;;5048852;28;45625;-76
2023/05/12 09:21:20;;;;;;;;;5.50;5.50;;;;;;;;5008662;28;45829;-76
2023/05/12 09:23:59;;;;;;;;;6.50;4.00;;;;;;;;5046937;28;45467;-76
2023/05/12 09:26:25;;;;;;;;;7.75;3.50;;;;;;;;5049089;28;46704;-76
2023/05/12 09:28:54;;;;;;;;;5.00;4.00;;;;;;;;5043394;28;45428;-76
2023/05/12 09:31:21;;;;;;;;;7.50;3.50;;;;;;;;5048387;28;46997;-76
2023/05/12 09:33:46;;;;;;;;;5.00;3.00;;;;;;;;5046544;28;45519;-76
2023/05/12 09:36:22;;;;;;;;;4.75;3.00;;;;;;;;5047328;28;45697;-77
2023/05/12 09:39:03;;;;;;;;;4.50;2.75;;;;;;;;5045849;28;45383;-76
2023/05/12 09:41:28;;;;;;;;;5.00;3.00;;;;;;;;5046554;28;47489;-77
2023/05/12 09:43:54;;;;;;;;;5.75;5.75;;;;;;;;5039708;28;45987;-76
2023/05/12 09:46:19;;;;;;;;;3.75;3.50;;;;;;;;5049707;28;45498;-77
2023/05/12 09:48:47;;;;;;;;;3.67;2.00;;;;;;;;5049211;28;45544;-76
2023/05/12 09:51:16;;;;;;;;;3.00;2.00;;;;;;;;5049182;28;45424;-76
2023/05/12 09:53:45;;;;;;;;;2.50;2.50;;;;;;;;5047640;28;45903;-76
2023/05/12 09:56:14;;;;;;;;;2.00;2.00;;;;;;;;5048899;28;45951;-76
2023/05/12 09:58:43;;;;;;;;;1.50;1.50;;;;;;;;5048624;28;45421;-76
2023/05/12 10:01:11;;;;;;;;;5.00;3.00;;;;;;;;5031282;28;46470;-76
2023/05/12 10:03:37;;;;;;;;;1.25;1.25;;;;;;;;5048942;28;45342;-74
2023/05/12 10:06:05;;;;;;;;;4.75;3.00;;;;;;;;5044459;28;45484;-75
2023/05/12 10:08:36;;;;;;;;;1.00;1.00;;;;;;;;5046784;28;45617;-74
2023/05/12 10:11:03;;;;;;;;;3.50;2.75;;;;;;;;5006987;28;46444;-75
2023/05/12 10:13:29;;;;;;;;;3.75;2.25;;;;;;;;5049671;28;46328;-76
2023/05/12 10:15:55;;;;;;;;;2.75;1.00;;;;;;;;5051428;28;45390;-76
2023/05/12 10:18:21;;;;;;;;;2.00;2.00;;;;;;;;5047487;28;45418;-76
2023/05/12 10:20:47;;;;;;;;;2.00;0.00;;;;;;;;5040482;28;47175;-76
2023/05/12 10:23:13;;;;;;;;;2.50;1.50;;;;;;;;4985905;28;46008;-76
2023/05/12 10:25:41;;;;;;;;;0.25;0.25;;;;;;;;5049337;28;45537;-75
2023/05/12 10:28:07;;;;;;;;;1.00;1.00;;;;;;;;5052119;28;45361;-76
2023/05/12 10:30:32;;;;;;;;;0.00;0.00;;;;;;;;5044333;28;48030;-75
2023/05/12 10:32:58;;;;;;;;;1.25;1.00;;;;;;;;5046698;28;45725;-78
2023/05/12 10:35:31;;;;;;;;;1.00;1.00;;;;;;;;5036456;28;45906;-78
2023/05/12 10:37:59;;;;;;;;;0.50;0.50;;;;;;;;5037823;28;45819;-77
2023/05/12 10:40:25;;;;;;;;;2.50;0.50;;;;;;;;5044607;28;46194;-77
2023/05/12 10:42:51;;;;;;;;;2.25;1.00;;;;;;;;5030571;28;45849;-77
2023/05/12 10:45:18;;;;;;;;;2.00;0.00;;;;;;;;5049455;28;45833;-77
2023/05/12 10:47:44;;;;;;;;;1.25;1.00;;;;;;;;5022556;28;46976;-78
2023/05/12 10:50:12;;;;;;;;;1.25;0.00;;;;;;;;5030281;28;46540;-77
2023/05/12 10:52:52;;;;;;;;;0.75;0.50;;;;;;;;5045312;28;46374;-77
2023/05/12 10:55:18;;;;;;;;;1.00;0.50;;;;;;;;5018343;28;45988;-78
2023/05/12 10:57:50;;;;;;;;;1.75;0.25;;;;;;;;5047363;28;45332;-78
2023/05/12 11:00:15;;;;;;;;;0.25;0.25;;;;;;;;5034150;28;47334;-77
2023/05/12 11:02:48;;;;;;;;;0.75;0.75;;;;;;;;5048173;28;45426;-78
2023/05/12 11:05:13;;;;;;;;;1.50;1.00;;;;;;;;5042575;28;46664;-80
2023/05/12 11:07:38;;;;;;;;;2.00;0.00;;;;;;;;5024404;28;45789;-79
2023/05/12 11:10:04;;;;;;;;;0.00;0.00;;;;;;;;5048777;28;46405;-78
2023/05/12 11:12:34;;;;;;;;;1.50;0.00;;;;;;;;5045622;28;46490;-78
2023/05/12 11:15:00;;;;;;;;;1.25;1.00;;;;;;;;5029963;28;45531;-78
2023/05/12 11:17:26;;;;;;;;;1.25;0.00;;;;;;;;5050359;28;45539;-79
2023/05/12 11:19:51;;;;;;;;;1.00;1.00;;;;;;;;5048837;28;45324;-77
2023/05/12 11:22:18;;;;;;;;;0.00;0.00;;;;;;;;5047161;28;46016;-77
2023/05/12 11:24:44;;;;;;;;;0.75;0.00;;;;;;;;5048087;28;45521;-77
2023/05/12 11:27:13;;;;;;;;;1.00;1.00;;;;;;;;5047523;28;45559;-77
2023/05/12 11:29:40;;;;;;;;;0.25;0.25;;;;;;;;5048579;28;45561;-78
2023/05/12 11:32:05;;;;;;;;;0.00;0.00;;;;;;;;5034528;28;45439;-78
2023/05/12 11:34:31;;;;;;;;;0.00;0.00;;;;;;;;5041901;28;45582;-77
2023/05/12 11:36:56;;;;;;;;;2.33;0.00;;;;;;;;5050092;28;45506;-79
2023/05/12 11:39:21;;;;;;;;;1.00;0.00;;;;;;;;5049946;28;46423;-77
2023/05/12 11:41:47;;;;;;;;;0.67;0.00;;;;;;;;5029925;28;45340;-78
2023/05/12 11:44:12;;;;;;;;;1.00;0.00;;;;;;;;5047441;28;45597;-80
2023/05/12 11:46:37;;;;;;;;;1.00;0.00;;;;;;;;5047132;28;45547;-79
2023/05/12 11:49:08;;;;;;;;;2.00;1.00;;;;;;;;5031092;28;46239;-79
2023/05/12 11:51:33;;;;;;;;;0.00;0.00;;;;;;;;5047353;28;45343;-79
2023/05/12 11:53:59;;;;;;;;;3.00;0.00;;;;;;;;5046226;28;45547;-78
2023/05/12 11:56:25;;;;;;;;;0.00;0.00;;;;;;;;5026914;28;45844;-78
2023/05/12 11:58:55;;;;;;;;;4.25;1.00;;;;;;;;5046558;28;45819;-77
2023/05/12 12:01:20;;;;;;;;;1.25;0.75;;;;;;;;5027350;28;46157;-78
2023/05/12 12:03:47;;;;;;;;;1.00;0.00;;;;;;;;5047061;28;45551;-78
2023/05/12 12:06:13;;;;;;;;;2.25;1.00;;;;;;;;5046922;28;45251;-78
2023/05/12 12:08:48;;;;;;;;;0.00;0.00;;;;;;;;5047804;28;45616;-78
2023/05/12 12:11:13;;;;;;;;;1.00;1.00;;;;;;;;5045570;28;45792;-77
2023/05/12 12:13:46;;;;;;;;;2.00;0.00;;;;;;;;5048860;28;45568;-79
2023/05/12 12:16:11;;;;;;;;;3.50;0.00;;;;;;;;5047629;28;45603;-78
2023/05/12 12:18:36;;;;;;;;;1.00;1.00;;;;;;;;5040629;28;47241;-77
2023/05/12 12:21:01;;;;;;;;;2.00;0.00;;;;;;;;5026202;28;45911;-79
2023/05/12 12:23:26;;;;;;;;;0.67;0.33;;;;;;;;5036554;28;45541;-80
2023/05/12 12:25:52;;;;;;;;;0.00;0.00;;;;;;;;5049854;28;45476;-78
2023/05/12 12:28:17;;;;;;;;;0.00;0.00;;;;;;;;5025694;28;45456;-78
2023/05/12 12:30:42;;;;;;;;;0.33;0.00;;;;;;;;5048402;28;45477;-78
2023/05/12 12:33:07;;;;;;;;;1.00;1.00;;;;;;;;5048302;28;45497;-79
2023/05/12 12:35:32;;;;;;;;;0.33;0.00;;;;;;;;5025374;28;45339;-80
2023/05/12 12:37:58;;;;;;;;;1.33;1.00;;;;;;;;5043647;28;45554;-80
2023/05/12 12:40:23;;;;;;;;;2.00;2.00;;;;;;;;5051094;28;45462;-79
2023/05/12 12:42:48;;;;;;;;;0.33;0.33;;;;;;;;5048593;28;45364;-78
2023/05/12 12:45:13;;;;;;;;;1.00;1.00;;;;;;;;5055016;28;45234;-79
2023/05/12 12:47:39;;;;;;;;;5.00;1.00;;;;;;;;5039663;28;45418;-77
2023/05/12 12:50:08;;;;;;;;;2.00;1.00;;;;;;;;5030847;28;45238;-78
2023/05/12 12:52:34;;;;;;;;;1.00;1.00;;;;;;;;5050497;28;45437;-78
2023/05/12 12:54:59;;;;;;;;;1.00;0.75;;;;;;;;5041071;28;45366;-79
2023/05/12 12:57:24;;;;;;;;;3.00;0.00;;;;;;;;5047235;28;45388;-79
2023/05/12 12:59:50;;;;;;;;;1.50;1.00;;;;;;;;5047543;28;45573;-78
2023/05/12 13:02:15;;;;;;;;;2.75;2.00;;;;;;;;5054276;28;45719;-79
2023/05/12 13:04:40;;;;;;;;;1.00;1.00;;;;;;;;5054789;28;45462;-78
2023/05/12 13:07:06;;;;;;;;;1.33;1.33;;;;;;;;5040039;28;46287;-78
2023/05/12 13:09:31;;;;;;;;;1.75;1.25;;;;;;;;5041139;28;46170;-78
2023/05/12 13:11:57;;;;;;;;;1.00;1.00;;;;;;;;5039487;28;45526;-76
2023/05/12 13:14:23;;;;;;;;;2.00;1.00;;;;;;;;5047284;28;45445;-77
2023/05/12 13:16:48;;;;;;;;;1.00;1.00;;;;;;;;5046729;28;47152;-77
2023/05/12 13:19:13;;;;;;;;;1.33;1.33;;;;;;;;5048484;28;45444;-77
2023/05/12 13:21:39;;;;;;;;;4.25;1.00;;;;;;;;5056151;28;45441;-78
2023/05/12 13:24:04;;;;;;;;;0.75;0.00;;;;;;;;5051152;28;45603;-78
2023/05/12 13:26:29;;;;;;;;;1.00;0.00;;;;;;;;5049732;28;46610;-78
2023/05/12 13:28:55;;;;;;;;;0.00;0.00;;;;;;;;5043950;28;45495;-78
2023/05/12 13:31:20;;;;;;;;;0.00;0.00;;;;;;;;5048788;28;45439;-78
2023/05/12 13:33:45;;;;;;;;;2.00;0.00;;;;;;;;5040164;28;45595;-77
2023/05/12 13:36:11;;;;;;;;;1.00;0.00;;;;;;;;5037935;28;47461;-77
2023/05/12 13:38:36;;;;;;;;;4.50;0.00;;;;;;;;5051684;28;45451;-78
2023/05/12 13:41:01;;;;;;;;;1.00;1.00;;;;;;;;5053531;28;45377;-78
2023/05/12 13:43:27;;;;;;;;;0.00;0.00;;;;;;;;5047622;28;45575;-77
2023/05/12 13:45:52;;;;;;;;;1.50;0.50;;;;;;;;5044793;28;47067;-76
2023/05/12 13:48:17;;;;;;;;;0.33;0.00;;;;;;;;5051322;28;45610;-77
2023/05/12 13:50:42;;;;;;;;;0.33;0.00;;;;;;;;5043789;28;45657;-77
2023/05/12 13:53:08;;;;;;;;;0.00;0.00;;;;;;;;5047134;28;45394;-80
2023/05/12 13:55:37;;;;;;;;;0.75;0.75;;;;;;;;5052320;28;45502;-80
2023/05/12 13:58:02;;;;;;;;;0.25;0.00;;;;;;;;5036982;28;46885;-79
2023/05/12 14:00:28;;;;;;;;;0.25;0.25;;;;;;;;5042824;28;45460;-80
2023/05/12 14:02:53;;;;;;;;;0.00;0.00;;;;;;;;5049763;28;45644;-79
2023/05/12 14:05:19;;;;;;;;;0.00;0.00;;;;;;;;5054760;28;46229;-80
2023/05/12 14:07:44;;;;;;;;;2.00;0.25;;;;;;;;5057202;28;45279;-79
2023/05/12 14:10:09;;;;;;;;;0.00;0.00;;;;;;;;5046765;28;45289;-80
2023/05/12 14:12:35;;;;;;;;;1.50;0.25;;;;;;;;5056577;28;45377;-79
2023/05/12 14:15:02;;;;;;;;;0.50;0.00;;;;;;;;5054137;28;45636;-79
2023/05/12 14:17:27;;;;;;;;;0.00;0.00;;;;;;;;5052973;28;45499;-79
2023/05/12 14:19:52;;;;;;;;;0.00;0.00;;;;;;;;5037242;28;45514;-79
2023/05/12 14:22:18;;;;;;;;;1.00;1.00;;;;;;;;5052382;28;45524;-77
2023/05/12 14:24:43;;;;;;;;;0.00;0.00;;;;;;;;5056917;28;47262;-78
2023/05/12 14:27:08;;;;;;;;;0.00;0.00;;;;;;;;5053998;28;45523;-77
2023/05/12 14:29:34;;;;;;;;;0.00;0.00;;;;;;;;5028698;28;45484;-77
2023/05/12 14:31:59;;;;;;;;;0.00;0.00;;;;;;;;5056686;28;45528;-77
2023/05/12 14:34:24;;;;;;;;;1.00;0.00;;;;;;;;5053376;28;46286;-78